Wednesday, August 15, 2018, 4:41 AM EDT
Back to Local

K1P1, Plymouth, Plymouth Municipal Airport

Location: Plymouth, NH, United States Lat: 43.779
Local Time: 4:41 AM EDT ( 8:41 GMT) Lon: -71.754
Time Zone: US/Eastern Elev: 505 ft

Show me the last for .
Show Decoded

2018-08-15 04:35 METAR K1P1 150835Z AUTO 00000KT 5SM BR BKN001 OVC009 19/18 A2982 RMK AO2
                 T01870180 =
2018-08-15 04:15 METAR K1P1 150815Z AUTO 00000KT 5SM BR BKN001 OVC009 19/18 A2982 RMK AO2
                 T01850178 =
2018-08-15 03:55 METAR K1P1 150755Z AUTO 00000KT 7SM BKN004 OVC009 19/18 A2982 RMK AO2 T01870180
                 =
2018-08-15 03:35 METAR K1P1 150735Z AUTO 00000KT 5SM BR BKN002 OVC008 19/18 A2982 RMK AO2
                 T01850178 =
2018-08-15 03:15 METAR K1P1 150715Z AUTO 00000KT 4SM BR SCT002 BKN019 BKN028 19/18 A2982 RMK AO2
                 T01880181 =
2018-08-15 02:55 METAR K1P1 150655Z AUTO 00000KT 2 1/2SM BR BKN002 OVC021 19/18 A2983 RMK AO2 VIS
                 1 1/2V5 T01900183 =
2018-08-15 02:35 METAR K1P1 150635Z AUTO 00000KT 1SM BR BKN002 OVC019 19/18 A2983 RMK AO2
                 T01900183 =
2018-08-15 02:15 METAR K1P1 150615Z AUTO 00000KT 1 1/4SM BR OVC002 19/18 A2983 RMK AO2 T01900182
                 =
2018-08-15 01:55 METAR K1P1 150555Z AUTO 00000KT 2 1/2SM BR BKN002 OVC019 19/18 A2984 RMK AO2
                 T01900182 10218 20182 =
2018-08-15 01:35 METAR K1P1 150535Z AUTO 00000KT 2SM BR OVC002 19/18 A2984 RMK AO2 VIS 1V4
                 T01900182 =
2018-08-15 01:15 METAR K1P1 150515Z AUTO 00000KT 1 1/4SM BR BKN002 OVC020 19/18 A2984 RMK AO2
                 T01900182 =
2018-08-15 00:55 METAR K1P1 150455Z AUTO 00000KT 1SM BR OVC002 19/18 A2984 RMK AO2 T01890181 =
2018-08-15 00:35 METAR K1P1 150435Z AUTO 00000KT 1 3/4SM BR OVC002 19/18 A2985 RMK AO2 T01870180
                 =
2018-08-15 00:15 METAR K1P1 150415Z AUTO 00000KT 4SM BR BKN002 BKN022 OVC043 19/18 A2985 RMK AO2
                 T01870180 =
2018-08-14 23:55 METAR K1P1 150355Z AUTO 00000KT 4SM BR SCT004 SCT020 BKN040 19/18 A2986 RMK AO2
                 T01860179 402710182 =
2018-08-14 23:35 METAR K1P1 150335Z AUTO 00000KT 4SM BR SCT020 19/18 A2986 RMK AO2 T01870179 =
2018-08-14 23:15 METAR K1P1 150315Z AUTO 00000KT 4SM BR SCT001 BKN020 BKN038 19/18 A2986 RMK AO2
                 T01880180 =
2018-08-14 22:55 METAR K1P1 150255Z AUTO 00000KT 4SM BR OVC020 19/18 A2986 RMK AO2 T01890180 =
2018-08-14 22:35 METAR K1P1 150235Z AUTO 00000KT 2SM BR SCT001 BKN020 19/18 A2986 RMK AO2 LTG
                 DSNT SW AND W T01870180 =
2018-08-14 22:15 METAR K1P1 150215Z AUTO 00000KT 4SM BR CLR 19/18 A2985 RMK AO2 LTG DSNT W
                 T01900181 =
2018-08-14 21:55 METAR K1P1 150155Z AUTO 00000KT 2 1/2SM BR SCT050 19/18 A2986 RMK AO2 VIS 1
                 3/4V4 LTG DSNT W T01900181 =
2018-08-14 21:35 METAR K1P1 150135Z AUTO 00000KT 1 3/4SM VCTS BR SCT024 BKN050 19/19 A2986 RMK
                 AO2 T01930185 =
2018-08-14 21:15 METAR K1P1 150115Z AUTO 00000KT 3SM BR SCT055 20/19 A2986 RMK AO2 T01960185 =
2018-08-14 20:55 METAR K1P1 150055Z AUTO 00000KT 5SM BR CLR 20/19 A2984 RMK AO2 T02020190 =
2018-08-14 20:35 METAR K1P1 150035Z AUTO 00000KT 10SM CLR 21/19 A2984 RMK AO2 T02080192 =
2018-08-14 20:15 METAR K1P1 150015Z AUTO 00000KT 10SM CLR 22/19 A2984 RMK AO2 LTG DSNT W
                 T02150194 =
2018-08-14 19:55 METAR K1P1 142355Z AUTO 10003KT 10SM CLR 22/20 A2984 RMK AO2 LTG DSNT W
                 T02180195 10271 20218 =
2018-08-14 19:35 METAR K1P1 142335Z AUTO 00000KT 10SM CLR 23/20 A2983 RMK AO2 T02260196 =
2018-08-14 19:15 METAR K1P1 142315Z AUTO 00000KT 10SM CLR 23/20 A2983 RMK AO2 T02340197 =
2018-08-14 18:55 METAR K1P1 142255Z AUTO 00000KT 10SM CLR 24/20 A2982 RMK AO2 LTG DSNT W
                 T02410200 =
2018-08-14 18:35 METAR K1P1 142235Z AUTO 00000KT 10SM CLR 25/20 A2982 RMK AO2 T02470201 =
2018-08-14 18:15 METAR K1P1 142215Z AUTO 00000KT 10SM CLR 25/20 A2982 RMK AO2 T02470204 =
2018-08-14 17:55 METAR K1P1 142155Z AUTO 10004KT 10SM CLR 25/21 A2983 RMK AO2 T02500205 =
2018-08-14 17:35 METAR K1P1 142135Z AUTO 09003KT 10SM SCT039 SCT048 BKN050 26/21 A2984 RMK AO2
                 T02550208 =
2018-08-14 17:15 METAR K1P1 142115Z AUTO 00000KT 10SM -RA OVC039 24/21 A2984 RMK AO2 T02420209 =
2018-08-14 16:55 METAR K1P1 142055Z AUTO 00000KT 10SM -RA SCT036 BKN044 BKN050 24/21 A2984 RMK
                 AO2 T02400208 =
2018-08-14 16:35 METAR K1P1 142035Z AUTO 00000KT 10SM SCT045 SCT055 24/21 A2983 RMK AO2 T02400205
                 =
2018-08-14 16:15 METAR K1P1 142015Z AUTO 00000KT 10SM -RA SCT033 SCT038 BKN045 25/20 A2984 RMK
                 AO2 T02450202 =
2018-08-14 15:55 METAR K1P1 141955Z AUTO 11004KT 10SM BKN032 BKN040 25/20 A2984 RMK AO2 T02500200
                 =
2018-08-14 15:35 METAR K1P1 141935Z AUTO 11003KT 10SM BKN032 BKN038 26/20 A2985 RMK AO2 T02550197
                 =
2018-08-14 15:15 METAR K1P1 141915Z AUTO 09004KT 10SM SCT029 SCT034 26/20 A2985 RMK AO2 T02620195
                 =
2018-08-14 14:55 METAR K1P1 141855Z AUTO 07005KT 10SM SCT037 27/20 A2986 RMK AO2 LTG DSNT S
                 T02670200 =
2018-08-14 14:35 METAR K1P1 141835Z AUTO 10005KT 10SM SCT021 SCT033 26/20 A2987 RMK AO2 T02630202
                 =
2018-08-14 14:15 METAR K1P1 141815Z AUTO 10005KT 10SM SCT021 BKN031 26/20 A2988 RMK AO2 LTG DSNT
                 S T02640202 =
2018-08-14 13:55 METAR K1P1 141755Z AUTO 00000KT 10SM SCT033 26/20 A2989 RMK AO2 60003 T02550201
                 10255 20202 =
2018-08-14 13:35 METAR K1P1 141735Z AUTO 05004KT 10SM SCT012 SCT020 BKN036 25/20 A2989 RMK AO2
                 T02510200 =
2018-08-14 13:15 METAR K1P1 141715Z AUTO 09004KT 10SM BKN012 BKN021 OVC055 24/20 A2990 RMK AO2
                 T02410203 =
2018-08-14 12:55 METAR K1P1 141655Z AUTO 11003KT 10SM BKN012 BKN020 OVC055 24/21 A2991 RMK AO2
                 T02420205 =
2018-08-14 12:35 METAR K1P1 141635Z AUTO 00000KT 10SM SCT015 OVC023 23/20 A2991 RMK AO2 T02300200
                 =
2018-08-14 12:15 METAR K1P1 141615Z AUTO 00000KT 10SM BKN025 OVC032 23/20 A2991 RMK AO2 T02290202
                 =
2018-08-14 11:55 METAR K1P1 141555Z AUTO 08003KT 10SM SCT015 BKN025 OVC030 23/20 A2992 RMK AO2
                 T02250201 =
2018-08-14 11:35 METAR K1P1 141535Z AUTO 08003KT 10SM SCT005 SCT010 OVC027 22/20 A2992 RMK AO2
                 T02210203 =
2018-08-14 11:15 METAR K1P1 141515Z AUTO 00000KT 10SM SCT005 BKN010 OVC015 22/20 A2992 RMK AO2
                 T02150200 =
2018-08-14 10:55 METAR K1P1 141455Z AUTO 07003KT 10SM SCT003 SCT009 OVC016 21/20 A2993 RMK AO2
                 P0003 60003 T02120201 =
2018-08-14 10:35 METAR K1P1 141435Z AUTO 07003KT 2 1/2SM RA SCT007 OVC014 21/20 A2993 RMK AO2
                 P0003 T02060195 =
2018-08-14 10:15 METAR K1P1 141415Z AUTO 00000KT 2SM DZ OVC007 21/20 A2993 RMK AO2 P0001
                 T02070195 =
2018-08-14 09:55 METAR K1P1 141355Z AUTO 10003KT 7SM -RA OVC009 21/20 A2993 RMK AO2 T02080196 =
2018-08-14 09:35 METAR K1P1 141335Z AUTO 00000KT 5SM BR OVC009 21/20 A2993 RMK AO2 T02070195 =
2018-08-14 09:15 METAR K1P1 141315Z AUTO 10003KT 4SM BR OVC007 21/20 A2993 RMK AO2 T02060195 =
2018-08-14 08:55 METAR K1P1 141255Z AUTO 00000KT 10SM OVC007 21/20 A2993 RMK AO2 T02050195 =
2018-08-14 08:35 METAR K1P1 141235Z AUTO 11003KT 10SM OVC009 21/20 A2993 RMK AO2 T02060198 =
2018-08-14 08:15 METAR K1P1 141215Z AUTO 06003KT 10SM OVC009 21/20 A2994 RMK AO2 LTG DSNT W
                 T02050197 =
2018-08-14 07:55 METAR K1P1 141155Z AUTO 00000KT 7SM SCT003 OVC007 20/19 A2994 RMK AO2 LTG DSNT W
                 60032 70035 T02020194 10202 20196 =
2018-08-14 07:35 METAR K1P1 141135Z AUTO 00000KT 7SM SCT003 OVC009 20/19 A2993 RMK AO2 T02000192
                 =
2018-08-14 07:15 METAR K1P1 141115Z AUTO 00000KT 10SM SCT003 OVC009 20/19 A2993 RMK AO2 T02000192
                 =
2018-08-14 06:55 METAR K1P1 141055Z AUTO 00000KT 5SM BR BKN003 OVC009 20/19 A2993 RMK AO2 P0001
                 T01990190 =
2018-08-14 06:35 METAR K1P1 141035Z AUTO 00000KT 7SM BKN005 OVC008 20/19 A2993 RMK AO2 P0001
                 T01970189 =
2018-08-14 06:15 METAR K1P1 141015Z AUTO 00000KT 4SM -DZ SCT003 BKN010 OVC020 20/19 A2993 RMK AO2
                 P0001 T01970190 =
2018-08-14 05:55 METAR K1P1 140955Z AUTO 00000KT 4SM RA BKN010 OVC015 20/19 A2992 RMK AO2 P0003
                 T01960188 =
2018-08-14 05:35 METAR K1P1 140935Z AUTO 00000KT 3SM RA SCT006 OVC013 20/19 A2992 RMK AO2 P0001
                 T01960188 =
2018-08-14 05:15 METAR K1P1 140915Z AUTO 00000KT 5SM BR SCT005 OVC013 20/19 A2992 RMK AO2
                 T01960188 =
2018-08-14 04:55 METAR K1P1 140855Z AUTO 00000KT 5SM RA SCT007 OVC013 20/19 A2993 RMK AO2 60028
                 T01960188 =

Support USWX by starting your Amazon purchase here.